sensor_id;sensor_type;location;lat;lon;timestamp;P1;durP1;ratioP1;P2;durP2;ratioP2
63038;SDS011;49125;48.812;9.206;2022-09-09T00:04:31;5.37;;;3.00;;
63038;SDS011;49125;48.812;9.206;2022-09-09T00:16:11;5.30;;;2.97;;
63038;SDS011;49125;48.812;9.206;2022-09-09T00:23:43;5.33;;;2.87;;
63038;SDS011;49125;48.812;9.206;2022-09-09T00:31:39;6.93;;;3.03;;
63038;SDS011;49125;48.812;9.206;2022-09-09T00:36:38;6.03;;;2.90;;
63038;SDS011;49125;48.812;9.206;2022-09-09T00:39:08;4.73;;;2.70;;
63038;SDS011;49125;48.812;9.206;2022-09-09T00:44:27;6.27;;;2.63;;
63038;SDS011;49125;48.812;9.206;2022-09-09T00:55:16;4.17;;;2.30;;
63038;SDS011;49125;48.812;9.206;2022-09-09T00:57:59;5.50;;;2.80;;
63038;SDS011;49125;48.812;9.206;2022-09-09T01:00:31;5.13;;;2.40;;
63038;SDS011;49125;48.812;9.206;2022-09-09T01:10:53;6.35;;;2.80;;
63038;SDS011;49125;48.812;9.206;2022-09-09T01:13:26;5.73;;;2.60;;
63038;SDS011;49125;48.812;9.206;2022-09-09T01:16:00;8.60;;;3.00;;
63038;SDS011;49125;48.812;9.206;2022-09-09T01:18:30;8.23;;;3.30;;
63038;SDS011;49125;48.812;9.206;2022-09-09T01:23:43;5.55;;;3.38;;
63038;SDS011;49125;48.812;9.206;2022-09-09T01:26:35;7.13;;;3.30;;
63038;SDS011;49125;48.812;9.206;2022-09-09T01:29:07;7.55;;;3.97;;
63038;SDS011;49125;48.812;9.206;2022-09-09T01:31:38;8.90;;;3.80;;
63038;SDS011;49125;48.812;9.206;2022-09-09T01:34:12;8.43;;;3.57;;
63038;SDS011;49125;48.812;9.206;2022-09-09T01:36:44;5.82;;;4.07;;
63038;SDS011;49125;48.812;9.206;2022-09-09T01:39:12;9.50;;;4.10;;
63038;SDS011;49125;48.812;9.206;2022-09-09T01:41:41;7.25;;;3.85;;
63038;SDS011;49125;48.812;9.206;2022-09-09T01:44:07;6.22;;;3.80;;
63038;SDS011;49125;48.812;9.206;2022-09-09T01:46:33;8.18;;;3.90;;
63038;SDS011;49125;48.812;9.206;2022-09-09T01:48:59;5.80;;;3.55;;
63038;SDS011;49125;48.812;9.206;2022-09-09T01:51:26;13.70;;;4.22;;
63038;SDS011;49125;48.812;9.206;2022-09-09T01:53:53;6.97;;;3.50;;
63038;SDS011;49125;48.812;9.206;2022-09-09T01:56:21;13.82;;;4.22;;
63038;SDS011;49125;48.812;9.206;2022-09-09T02:07:02;6.50;;;3.60;;
63038;SDS011;49125;48.812;9.206;2022-09-09T02:09:40;7.50;;;3.20;;
63038;SDS011;49125;48.812;9.206;2022-09-09T02:12:16;6.20;;;3.38;;
63038;SDS011;49125;48.812;9.206;2022-09-09T02:14:47;6.70;;;3.13;;
63038;SDS011;49125;48.812;9.206;2022-09-09T02:17:19;6.60;;;3.27;;
63038;SDS011;49125;48.812;9.206;2022-09-09T02:20:08;5.88;;;3.30;;
63038;SDS011;49125;48.812;9.206;2022-09-09T02:22:38;7.47;;;3.40;;
63038;SDS011;49125;48.812;9.206;2022-09-09T02:25:08;5.00;;;3.63;;
63038;SDS011;49125;48.812;9.206;2022-09-09T02:27:37;6.50;;;3.40;;
63038;SDS011;49125;48.812;9.206;2022-09-09T02:30:03;8.77;;;3.87;;
63038;SDS011;49125;48.812;9.206;2022-09-09T02:32:29;6.43;;;3.50;;
63038;SDS011;49125;48.812;9.206;2022-09-09T02:35:02;8.27;;;3.90;;
63038;SDS011;49125;48.812;9.206;2022-09-09T02:37:32;8.37;;;4.10;;
63038;SDS011;49125;48.812;9.206;2022-09-09T02:40:04;5.87;;;4.07;;
63038;SDS011;49125;48.812;9.206;2022-09-09T02:42:37;6.90;;;3.67;;
63038;SDS011;49125;48.812;9.206;2022-09-09T02:45:04;8.10;;;4.07;;
63038;SDS011;49125;48.812;9.206;2022-09-09T02:47:34;11.07;;;3.93;;
63038;SDS011;49125;48.812;9.206;2022-09-09T02:55:12;8.27;;;3.23;;
63038;SDS011;49125;48.812;9.206;2022-09-09T02:58:10;7.00;;;4.00;;
63038;SDS011;49125;48.812;9.206;2022-09-09T03:00:41;7.60;;;3.47;;
63038;SDS011;49125;48.812;9.206;2022-09-09T03:03:08;5.43;;;3.30;;
63038;SDS011;49125;48.812;9.206;2022-09-09T03:05:34;5.27;;;3.60;;
63038;SDS011;49125;48.812;9.206;2022-09-09T03:08:00;6.90;;;3.70;;
63038;SDS011;49125;48.812;9.206;2022-09-09T03:10:27;9.00;;;3.53;;
63038;SDS011;49125;48.812;9.206;2022-09-09T03:12:52;7.43;;;3.40;;
63038;SDS011;49125;48.812;9.206;2022-09-09T03:15:21;5.73;;;2.90;;
63038;SDS011;49125;48.812;9.206;2022-09-09T03:17:46;7.30;;;3.37;;
63038;SDS011;49125;48.812;9.206;2022-09-09T03:20:12;6.17;;;2.70;;
63038;SDS011;49125;48.812;9.206;2022-09-09T03:22:38;5.87;;;2.93;;
63038;SDS011;49125;48.812;9.206;2022-09-09T03:25:04;6.83;;;2.70;;
63038;SDS011;49125;48.812;9.206;2022-09-09T03:27:30;6.60;;;2.70;;
63038;SDS011;49125;48.812;9.206;2022-09-09T03:29:56;4.63;;;2.83;;
63038;SDS011;49125;48.812;9.206;2022-09-09T03:32:22;4.73;;;3.20;;
63038;SDS011;49125;48.812;9.206;2022-09-09T03:34:50;8.87;;;2.60;;
63038;SDS011;49125;48.812;9.206;2022-09-09T03:37:17;5.43;;;2.83;;
63038;SDS011;49125;48.812;9.206;2022-09-09T03:39:43;6.57;;;2.70;;
63038;SDS011;49125;48.812;9.206;2022-09-09T03:42:11;8.17;;;2.90;;
63038;SDS011;49125;48.812;9.206;2022-09-09T03:44:39;4.17;;;2.40;;
63038;SDS011;49125;48.812;9.206;2022-09-09T03:47:04;3.37;;;2.10;;
63038;SDS011;49125;48.812;9.206;2022-09-09T03:49:31;7.43;;;2.87;;
63038;SDS011;49125;48.812;9.206;2022-09-09T03:51:56;5.27;;;2.50;;
63038;SDS011;49125;48.812;9.206;2022-09-09T03:54:23;4.37;;;2.30;;
63038;SDS011;49125;48.812;9.206;2022-09-09T03:56:52;5.67;;;2.53;;
63038;SDS011;49125;48.812;9.206;2022-09-09T03:59:18;8.10;;;3.00;;
63038;SDS011;49125;48.812;9.206;2022-09-09T04:01:45;5.07;;;2.50;;
63038;SDS011;49125;48.812;9.206;2022-09-09T04:04:12;4.53;;;2.27;;
63038;SDS011;49125;48.812;9.206;2022-09-09T04:06:37;4.20;;;2.70;;
63038;SDS011;49125;48.812;9.206;2022-09-09T04:09:03;6.10;;;2.57;;
63038;SDS011;49125;48.812;9.206;2022-09-09T04:11:28;5.90;;;3.33;;
63038;SDS011;49125;48.812;9.206;2022-09-09T04:13:54;8.07;;;3.23;;
63038;SDS011;49125;48.812;9.206;2022-09-09T04:16:20;5.97;;;3.23;;
63038;SDS011;49125;48.812;9.206;2022-09-09T04:18:45;5.77;;;3.27;;
63038;SDS011;49125;48.812;9.206;2022-09-09T04:21:11;5.07;;;3.27;;
63038;SDS011;49125;48.812;9.206;2022-09-09T04:23:37;6.20;;;3.23;;
63038;SDS011;49125;48.812;9.206;2022-09-09T04:26:04;8.20;;;2.90;;
63038;SDS011;49125;48.812;9.206;2022-09-09T04:28:34;6.60;;;3.13;;
63038;SDS011;49125;48.812;9.206;2022-09-09T04:31:04;8.63;;;3.00;;
63038;SDS011;49125;48.812;9.206;2022-09-09T04:33:34;7.53;;;2.60;;
63038;SDS011;49125;48.812;9.206;2022-09-09T04:36:03;7.60;;;2.77;;
63038;SDS011;49125;48.812;9.206;2022-09-09T04:38:29;7.33;;;3.10;;
63038;SDS011;49125;48.812;9.206;2022-09-09T04:40:55;7.50;;;2.70;;
63038;SDS011;49125;48.812;9.206;2022-09-09T04:43:20;6.50;;;3.00;;
63038;SDS011;49125;48.812;9.206;2022-09-09T04:45:47;8.13;;;2.90;;
63038;SDS011;49125;48.812;9.206;2022-09-09T04:48:14;5.35;;;2.42;;
63038;SDS011;49125;48.812;9.206;2022-09-09T04:50:40;4.43;;;3.10;;
63038;SDS011;49125;48.812;9.206;2022-09-09T04:53:06;4.67;;;2.37;;
63038;SDS011;49125;48.812;9.206;2022-09-09T04:55:32;6.45;;;2.90;;
63038;SDS011;49125;48.812;9.206;2022-09-09T04:58:06;3.55;;;2.35;;
63038;SDS011;49125;48.812;9.206;2022-09-09T05:00:33;6.53;;;2.57;;
63038;SDS011;49125;48.812;9.206;2022-09-09T05:03:03;6.97;;;3.03;;
63038;SDS011;49125;48.812;9.206;2022-09-09T05:05:30;7.20;;;2.80;;
63038;SDS011;49125;48.812;9.206;2022-09-09T05:08:02;8.73;;;2.50;;
63038;SDS011;49125;48.812;9.206;2022-09-09T05:10:29;5.87;;;2.53;;
63038;SDS011;49125;48.812;9.206;2022-09-09T05:12:55;4.83;;;2.40;;
63038;SDS011;49125;48.812;9.206;2022-09-09T05:15:21;6.10;;;2.90;;
63038;SDS011;49125;48.812;9.206;2022-09-09T05:17:47;6.40;;;2.87;;
63038;SDS011;49125;48.812;9.206;2022-09-09T05:20:13;4.27;;;2.20;;
63038;SDS011;49125;48.812;9.206;2022-09-09T05:22:41;4.63;;;2.37;;
63038;SDS011;49125;48.812;9.206;2022-09-09T05:25:07;3.60;;;2.20;;
63038;SDS011;49125;48.812;9.206;2022-09-09T05:27:36;6.60;;;2.50;;
63038;SDS011;49125;48.812;9.206;2022-09-09T05:30:02;7.43;;;2.50;;
63038;SDS011;49125;48.812;9.206;2022-09-09T05:32:29;4.27;;;2.37;;
63038;SDS011;49125;48.812;9.206;2022-09-09T05:34:59;9.80;;;2.80;;
63038;SDS011;49125;48.812;9.206;2022-09-09T05:37:24;6.60;;;2.73;;
63038;SDS011;49125;48.812;9.206;2022-09-09T05:39:50;8.05;;;2.97;;
63038;SDS011;49125;48.812;9.206;2022-09-09T05:42:16;6.07;;;2.90;;
63038;SDS011;49125;48.812;9.206;2022-09-09T05:44:42;7.07;;;2.95;;
63038;SDS011;49125;48.812;9.206;2022-09-09T05:47:09;7.35;;;2.70;;
63038;SDS011;49125;48.812;9.206;2022-09-09T05:49:35;7.80;;;2.78;;
63038;SDS011;49125;48.812;9.206;2022-09-09T05:52:01;5.65;;;2.60;;
63038;SDS011;49125;48.812;9.206;2022-09-09T05:54:28;9.38;;;2.72;;
63038;SDS011;49125;48.812;9.206;2022-09-09T05:56:54;6.20;;;3.20;;
63038;SDS011;49125;48.812;9.206;2022-09-09T05:59:20;6.30;;;3.28;;
63038;SDS011;49125;48.812;9.206;2022-09-09T06:01:48;10.57;;;3.08;;
63038;SDS011;49125;48.812;9.206;2022-09-09T06:04:13;4.55;;;2.65;;
63038;SDS011;49125;48.812;9.206;2022-09-09T06:06:40;7.43;;;2.67;;
63038;SDS011;49125;48.812;9.206;2022-09-09T06:09:07;8.43;;;2.35;;
63038;SDS011;49125;48.812;9.206;2022-09-09T06:11:35;11.98;;;2.78;;
63038;SDS011;49125;48.812;9.206;2022-09-09T06:14:03;5.13;;;2.20;;
63038;SDS011;49125;48.812;9.206;2022-09-09T06:16:30;6.07;;;2.58;;
63038;SDS011;49125;48.812;9.206;2022-09-09T06:18:59;4.13;;;2.10;;
63038;SDS011;49125;48.812;9.206;2022-09-09T06:21:26;7.97;;;2.90;;
63038;SDS011;49125;48.812;9.206;2022-09-09T06:23:57;7.07;;;2.65;;
63038;SDS011;49125;48.812;9.206;2022-09-09T06:26:27;5.40;;;2.83;;
63038;SDS011;49125;48.812;9.206;2022-09-09T06:28:55;7.10;;;2.92;;
63038;SDS011;49125;48.812;9.206;2022-09-09T06:31:23;6.25;;;2.95;;
63038;SDS011;49125;48.812;9.206;2022-09-09T06:33:56;4.90;;;2.85;;
63038;SDS011;49125;48.812;9.206;2022-09-09T06:36:33;6.40;;;2.75;;
63038;SDS011;49125;48.812;9.206;2022-09-09T06:39:00;6.95;;;2.95;;
63038;SDS011;49125;48.812;9.206;2022-09-09T06:41:27;8.30;;;2.97;;
63038;SDS011;49125;48.812;9.206;2022-09-09T06:43:54;8.45;;;2.63;;
63038;SDS011;49125;48.812;9.206;2022-09-09T06:46:24;5.90;;;2.80;;
63038;SDS011;49125;48.812;9.206;2022-09-09T06:48:54;8.40;;;2.80;;
63038;SDS011;49125;48.812;9.206;2022-09-09T06:51:31;6.75;;;2.80;;
63038;SDS011;49125;48.812;9.206;2022-09-09T06:53:59;6.97;;;2.80;;
63038;SDS011;49125;48.812;9.206;2022-09-09T06:58:57;5.75;;;3.00;;
63038;SDS011;49125;48.812;9.206;2022-09-09T07:01:26;5.55;;;2.72;;
63038;SDS011;49125;48.812;9.206;2022-09-09T07:03:55;5.43;;;2.58;;
63038;SDS011;49125;48.812;9.206;2022-09-09T07:06:24;4.97;;;2.38;;
63038;SDS011;49125;48.812;9.206;2022-09-09T07:08:54;6.53;;;2.53;;
63038;SDS011;49125;48.812;9.206;2022-09-09T07:11:23;9.32;;;2.45;;
63038;SDS011;49125;48.812;9.206;2022-09-09T07:13:52;6.65;;;2.65;;
63038;SDS011;49125;48.812;9.206;2022-09-09T07:16:18;6.07;;;3.15;;
63038;SDS011;49125;48.812;9.206;2022-09-09T07:18:45;8.68;;;2.60;;
63038;SDS011;49125;48.812;9.206;2022-09-09T07:21:12;8.82;;;2.05;;
63038;SDS011;49125;48.812;9.206;2022-09-09T07:23:39;7.78;;;2.72;;
63038;SDS011;49125;48.812;9.206;2022-09-09T07:26:09;9.05;;;2.47;;
63038;SDS011;49125;48.812;9.206;2022-09-09T07:28:39;4.63;;;2.17;;
63038;SDS011;49125;48.812;9.206;2022-09-09T07:31:06;7.03;;;2.00;;
63038;SDS011;49125;48.812;9.206;2022-09-09T07:33:38;6.82;;;2.10;;
63038;SDS011;49125;48.812;9.206;2022-09-09T07:38:29;4.60;;;2.28;;
63038;SDS011;49125;48.812;9.206;2022-09-09T07:41:05;6.20;;;2.40;;
63038;SDS011;49125;48.812;9.206;2022-09-09T07:43:37;8.55;;;2.30;;
63038;SDS011;49125;48.812;9.206;2022-09-09T07:46:05;5.63;;;2.30;;
63038;SDS011;49125;48.812;9.206;2022-09-09T07:48:31;5.68;;;2.40;;
63038;SDS011;49125;48.812;9.206;2022-09-09T07:51:08;5.88;;;2.10;;
63038;SDS011;49125;48.812;9.206;2022-09-09T07:53:36;5.95;;;1.80;;
63038;SDS011;49125;48.812;9.206;2022-09-09T07:56:07;8.13;;;2.30;;
63038;SDS011;49125;48.812;9.206;2022-09-09T07:58:35;4.28;;;1.63;;
63038;SDS011;49125;48.812;9.206;2022-09-09T08:01:06;3.13;;;1.60;;
63038;SDS011;49125;48.812;9.206;2022-09-09T08:03:36;7.68;;;2.15;;
63038;SDS011;49125;48.812;9.206;2022-09-09T08:06:05;4.43;;;1.98;;
63038;SDS011;49125;48.812;9.206;2022-09-09T08:08:33;7.00;;;2.53;;
63038;SDS011;49125;48.812;9.206;2022-09-09T08:11:11;3.88;;;2.00;;
63038;SDS011;49125;48.812;9.206;2022-09-09T08:13:39;5.35;;;2.03;;
63038;SDS011;49125;48.812;9.206;2022-09-09T08:16:16;6.28;;;2.05;;
63038;SDS011;49125;48.812;9.206;2022-09-09T08:18:51;5.75;;;2.10;;
63038;SDS011;49125;48.812;9.206;2022-09-09T08:21:19;4.60;;;2.08;;
63038;SDS011;49125;48.812;9.206;2022-09-09T08:23:49;4.10;;;1.92;;
63038;SDS011;49125;48.812;9.206;2022-09-09T08:26:20;4.28;;;1.60;;
63038;SDS011;49125;48.812;9.206;2022-09-09T08:28:51;5.25;;;2.17;;
63038;SDS011;49125;48.812;9.206;2022-09-09T08:31:19;3.50;;;1.88;;
63038;SDS011;49125;48.812;9.206;2022-09-09T08:33:46;3.03;;;1.70;;
63038;SDS011;49125;48.812;9.206;2022-09-09T08:36:13;3.90;;;1.80;;
63038;SDS011;49125;48.812;9.206;2022-09-09T08:38:43;3.17;;;1.10;;
63038;SDS011;49125;48.812;9.206;2022-09-09T08:46:55;6.00;;;1.60;;
63038;SDS011;49125;48.812;9.206;2022-09-09T08:52:21;2.40;;;1.27;;
63038;SDS011;49125;48.812;9.206;2022-09-09T08:54:47;3.10;;;1.33;;
63038;SDS011;49125;48.812;9.206;2022-09-09T08:57:14;3.83;;;1.45;;
63038;SDS011;49125;48.812;9.206;2022-09-09T08:59:46;3.30;;;1.30;;
63038;SDS011;49125;48.812;9.206;2022-09-09T09:02:17;4.53;;;1.27;;
63038;SDS011;49125;48.812;9.206;2022-09-09T09:05:23;2.05;;;1.05;;
63038;SDS011;49125;48.812;9.206;2022-09-09T09:08:03;4.38;;;1.58;;
63038;SDS011;49125;48.812;9.206;2022-09-09T09:13:12;5.07;;;1.60;;
63038;SDS011;49125;48.812;9.206;2022-09-09T09:15:51;3.50;;;1.42;;
63038;SDS011;49125;48.812;9.206;2022-09-09T09:18:24;5.25;;;1.30;;
63038;SDS011;49125;48.812;9.206;2022-09-09T09:21:06;3.42;;;1.30;;
63038;SDS011;49125;48.812;9.206;2022-09-09T09:23:45;2.08;;;1.10;;
63038;SDS011;49125;48.812;9.206;2022-09-09T09:26:16;6.22;;;1.60;;
63038;SDS011;49125;48.812;9.206;2022-09-09T09:28:43;2.42;;;1.25;;
63038;SDS011;49125;48.812;9.206;2022-09-09T09:31:10;6.85;;;1.65;;
63038;SDS011;49125;48.812;9.206;2022-09-09T09:36:06;3.85;;;1.40;;
63038;SDS011;49125;48.812;9.206;2022-09-09T09:38:33;3.92;;;1.35;;
63038;SDS011;49125;48.812;9.206;2022-09-09T09:40:59;3.45;;;1.25;;
63038;SDS011;49125;48.812;9.206;2022-09-09T09:43:33;1.98;;;1.20;;
63038;SDS011;49125;48.812;9.206;2022-09-09T09:46:00;4.57;;;1.20;;
63038;SDS011;49125;48.812;9.206;2022-09-09T09:48:28;1.92;;;0.98;;
63038;SDS011;49125;48.812;9.206;2022-09-09T09:53:32;2.42;;;1.00;;
63038;SDS011;49125;48.812;9.206;2022-09-09T09:58:32;3.13;;;0.98;;
63038;SDS011;49125;48.812;9.206;2022-09-09T10:01:03;2.25;;;1.00;;
63038;SDS011;49125;48.812;9.206;2022-09-09T10:03:33;1.90;;;1.10;;
63038;SDS011;49125;48.812;9.206;2022-09-09T10:06:05;1.17;;;0.88;;
63038;SDS011;49125;48.812;9.206;2022-09-09T10:08:33;2.10;;;1.00;;
63038;SDS011;49125;48.812;9.206;2022-09-09T10:11:22;2.97;;;1.20;;
63038;SDS011;49125;48.812;9.206;2022-09-09T10:17:27;2.47;;;1.20;;
63038;SDS011;49125;48.812;9.206;2022-09-09T10:22:45;2.05;;;1.00;;
63038;SDS011;49125;48.812;9.206;2022-09-09T10:28:39;1.95;;;1.15;;
63038;SDS011;49125;48.812;9.206;2022-09-09T10:31:45;4.07;;;1.40;;
63038;SDS011;49125;48.812;9.206;2022-09-09T10:37:11;4.55;;;1.27;;
63038;SDS011;49125;48.812;9.206;2022-09-09T10:50:50;4.22;;;1.35;;
63038;SDS011;49125;48.812;9.206;2022-09-09T10:53:24;3.45;;;1.67;;
63038;SDS011;49125;48.812;9.206;2022-09-09T10:56:09;2.88;;;1.42;;
63038;SDS011;49125;48.812;9.206;2022-09-09T10:58:42;3.47;;;1.83;;
63038;SDS011;49125;48.812;9.206;2022-09-09T11:01:22;5.35;;;1.60;;
63038;SDS011;49125;48.812;9.206;2022-09-09T11:03:53;5.38;;;1.70;;
63038;SDS011;49125;48.812;9.206;2022-09-09T11:06:25;2.70;;;1.40;;
63038;SDS011;49125;48.812;9.206;2022-09-09T11:08:58;3.65;;;1.48;;
63038;SDS011;49125;48.812;9.206;2022-09-09T11:11:27;2.97;;;1.40;;
63038;SDS011;49125;48.812;9.206;2022-09-09T11:14:01;4.45;;;1.30;;
63038;SDS011;49125;48.812;9.206;2022-09-09T11:16:50;4.68;;;1.40;;
63038;SDS011;49125;48.812;9.206;2022-09-09T11:19:24;2.97;;;1.00;;
63038;SDS011;49125;48.812;9.206;2022-09-09T11:22:06;2.75;;;1.30;;
63038;SDS011;49125;48.812;9.206;2022-09-09T11:25:26;3.50;;;1.20;;
63038;SDS011;49125;48.812;9.206;2022-09-09T11:41:48;6.75;;;1.30;;
63038;SDS011;49125;48.812;9.206;2022-09-09T11:44:18;1.77;;;0.95;;
63038;SDS011;49125;48.812;9.206;2022-09-09T11:46:51;1.13;;;0.70;;
63038;SDS011;49125;48.812;9.206;2022-09-09T11:49:30;1.92;;;1.10;;
63038;SDS011;49125;48.812;9.206;2022-09-09T11:54:51;2.53;;;1.10;;
63038;SDS011;49125;48.812;9.206;2022-09-09T11:57:24;1.63;;;0.90;;
63038;SDS011;49125;48.812;9.206;2022-09-09T11:59:53;2.85;;;0.90;;
63038;SDS011;49125;48.812;9.206;2022-09-09T12:02:23;3.35;;;1.17;;
63038;SDS011;49125;48.812;9.206;2022-09-09T12:04:55;3.10;;;0.80;;
63038;SDS011;49125;48.812;9.206;2022-09-09T12:07:30;2.13;;;0.60;;
63038;SDS011;49125;48.812;9.206;2022-09-09T12:10:05;1.92;;;0.93;;
63038;SDS011;49125;48.812;9.206;2022-09-09T12:12:45;0.63;;;0.40;;
63038;SDS011;49125;48.812;9.206;2022-09-09T12:17:47;3.72;;;0.63;;
63038;SDS011;49125;48.812;9.206;2022-09-09T12:28:11;2.05;;;0.63;;
63038;SDS011;49125;48.812;9.206;2022-09-09T12:33:18;2.03;;;1.00;;
63038;SDS011;49125;48.812;9.206;2022-09-09T12:35:44;0.75;;;0.52;;
63038;SDS011;49125;48.812;9.206;2022-09-09T12:38:21;1.65;;;0.68;;
63038;SDS011;49125;48.812;9.206;2022-09-09T12:40:56;3.72;;;0.90;;
63038;SDS011;49125;48.812;9.206;2022-09-09T12:43:23;2.22;;;1.00;;
63038;SDS011;49125;48.812;9.206;2022-09-09T12:45:51;0.90;;;0.80;;
63038;SDS011;49125;48.812;9.206;2022-09-09T12:48:24;1.02;;;0.70;;
63038;SDS011;49125;48.812;9.206;2022-09-09T12:53:53;2.60;;;1.02;;
63038;SDS011;49125;48.812;9.206;2022-09-09T12:56:20;3.42;;;1.10;;
63038;SDS011;49125;48.812;9.206;2022-09-09T12:58:50;1.88;;;1.05;;
63038;SDS011;49125;48.812;9.206;2022-09-09T13:01:21;1.67;;;0.80;;
63038;SDS011;49125;48.812;9.206;2022-09-09T13:03:50;1.63;;;0.85;;
63038;SDS011;49125;48.812;9.206;2022-09-09T13:06:27;2.40;;;1.00;;
63038;SDS011;49125;48.812;9.206;2022-09-09T13:08:54;1.45;;;0.90;;
63038;SDS011;49125;48.812;9.206;2022-09-09T13:11:26;1.42;;;0.77;;
63038;SDS011;49125;48.812;9.206;2022-09-09T13:14:05;1.58;;;0.90;;
63038;SDS011;49125;48.812;9.206;2022-09-09T13:16:32;2.55;;;0.98;;
63038;SDS011;49125;48.812;9.206;2022-09-09T13:19:00;1.83;;;1.15;;
63038;SDS011;49125;48.812;9.206;2022-09-09T13:21:38;1.05;;;0.75;;
63038;SDS011;49125;48.812;9.206;2022-09-09T13:24:05;2.42;;;1.13;;
63038;SDS011;49125;48.812;9.206;2022-09-09T13:26:44;3.08;;;1.20;;
63038;SDS011;49125;48.812;9.206;2022-09-09T13:29:21;2.33;;;0.90;;
63038;SDS011;49125;48.812;9.206;2022-09-09T13:31:47;3.00;;;1.60;;
63038;SDS011;49125;48.812;9.206;2022-09-09T13:34:26;2.10;;;1.15;;
63038;SDS011;49125;48.812;9.206;2022-09-09T13:36:59;2.03;;;1.15;;
63038;SDS011;49125;48.812;9.206;2022-09-09T13:39:31;1.58;;;0.80;;
63038;SDS011;49125;48.812;9.206;2022-09-09T13:41:59;1.95;;;1.08;;
63038;SDS011;49125;48.812;9.206;2022-09-09T13:44:28;2.65;;;1.10;;
63038;SDS011;49125;48.812;9.206;2022-09-09T13:47:04;2.75;;;0.95;;
63038;SDS011;49125;48.812;9.206;2022-09-09T13:49:31;2.92;;;0.93;;
63038;SDS011;49125;48.812;9.206;2022-09-09T13:52:12;3.08;;;0.93;;
63038;SDS011;49125;48.812;9.206;2022-09-09T13:54:39;3.05;;;1.33;;
63038;SDS011;49125;48.812;9.206;2022-09-09T13:57:11;5.25;;;1.20;;
63038;SDS011;49125;48.812;9.206;2022-09-09T13:59:43;1.55;;;0.70;;
63038;SDS011;49125;48.812;9.206;2022-09-09T14:02:13;1.85;;;0.80;;
63038;SDS011;49125;48.812;9.206;2022-09-09T14:04:39;3.03;;;0.85;;
63038;SDS011;49125;48.812;9.206;2022-09-09T14:07:07;1.70;;;1.08;;
63038;SDS011;49125;48.812;9.206;2022-09-09T14:09:38;2.22;;;0.90;;
63038;SDS011;49125;48.812;9.206;2022-09-09T14:12:04;3.17;;;0.90;;
63038;SDS011;49125;48.812;9.206;2022-09-09T14:14:30;3.47;;;1.00;;
63038;SDS011;49125;48.812;9.206;2022-09-09T14:16:56;2.38;;;0.98;;
63038;SDS011;49125;48.812;9.206;2022-09-09T14:19:21;1.77;;;0.88;;
63038;SDS011;49125;48.812;9.206;2022-09-09T14:21:47;1.58;;;0.80;;
63038;SDS011;49125;48.812;9.206;2022-09-09T14:24:13;2.13;;;0.95;;
63038;SDS011;49125;48.812;9.206;2022-09-09T14:26:39;3.47;;;1.08;;
63038;SDS011;49125;48.812;9.206;2022-09-09T14:29:05;2.85;;;0.75;;
63038;SDS011;49125;48.812;9.206;2022-09-09T14:31:31;3.47;;;1.00;;
63038;SDS011;49125;48.812;9.206;2022-09-09T14:33:56;1.73;;;1.00;;
63038;SDS011;49125;48.812;9.206;2022-09-09T14:36:22;0.95;;;0.80;;
63038;SDS011;49125;48.812;9.206;2022-09-09T14:38:49;1.70;;;1.08;;
63038;SDS011;49125;48.812;9.206;2022-09-09T14:41:16;2.03;;;0.80;;
63038;SDS011;49125;48.812;9.206;2022-09-09T14:43:42;1.90;;;0.90;;
63038;SDS011;49125;48.812;9.206;2022-09-09T14:46:12;1.70;;;0.90;;
63038;SDS011;49125;48.812;9.206;2022-09-09T14:48:39;2.22;;;1.08;;
63038;SDS011;49125;48.812;9.206;2022-09-09T14:51:10;1.65;;;0.82;;
63038;SDS011;49125;48.812;9.206;2022-09-09T14:53:38;2.63;;;0.77;;
63038;SDS011;49125;48.812;9.206;2022-09-09T14:56:05;1.77;;;1.10;;
63038;SDS011;49125;48.812;9.206;2022-09-09T14:58:33;1.98;;;0.90;;
63038;SDS011;49125;48.812;9.206;2022-09-09T15:01:06;1.77;;;0.80;;
63038;SDS011;49125;48.812;9.206;2022-09-09T15:03:35;3.55;;;0.98;;
63038;SDS011;49125;48.812;9.206;2022-09-09T15:06:08;2.08;;;0.70;;
63038;SDS011;49125;48.812;9.206;2022-09-09T15:08:36;0.80;;;0.57;;
63038;SDS011;49125;48.812;9.206;2022-09-09T15:11:03;1.65;;;0.85;;
63038;SDS011;49125;48.812;9.206;2022-09-09T15:13:30;2.70;;;0.70;;
63038;SDS011;49125;48.812;9.206;2022-09-09T15:15:55;2.95;;;1.10;;
63038;SDS011;49125;48.812;9.206;2022-09-09T15:18:23;4.10;;;1.90;;
63038;SDS011;49125;48.812;9.206;2022-09-09T15:20:48;4.32;;;2.15;;
63038;SDS011;49125;48.812;9.206;2022-09-09T15:23:14;3.03;;;1.42;;
63038;SDS011;49125;48.812;9.206;2022-09-09T15:25:50;3.65;;;1.23;;
63038;SDS011;49125;48.812;9.206;2022-09-09T15:28:17;4.38;;;1.33;;
63038;SDS011;49125;48.812;9.206;2022-09-09T15:30:42;2.92;;;1.00;;
63038;SDS011;49125;48.812;9.206;2022-09-09T15:33:09;1.33;;;0.70;;
63038;SDS011;49125;48.812;9.206;2022-09-09T15:35:35;3.67;;;0.82;;
63038;SDS011;49125;48.812;9.206;2022-09-09T15:38:01;3.22;;;0.82;;
63038;SDS011;49125;48.812;9.206;2022-09-09T15:40:29;2.55;;;0.75;;
63038;SDS011;49125;48.812;9.206;2022-09-09T15:42:57;4.00;;;0.80;;
63038;SDS011;49125;48.812;9.206;2022-09-09T15:45:26;1.50;;;0.57;;
63038;SDS011;49125;48.812;9.206;2022-09-09T15:47:51;3.17;;;1.00;;
63038;SDS011;49125;48.812;9.206;2022-09-09T15:50:17;1.55;;;0.80;;
63038;SDS011;49125;48.812;9.206;2022-09-09T15:52:43;1.58;;;0.85;;
63038;SDS011;49125;48.812;9.206;2022-09-09T15:55:09;1.63;;;0.98;;
63038;SDS011;49125;48.812;9.206;2022-09-09T15:57:35;2.17;;;0.73;;
63038;SDS011;49125;48.812;9.206;2022-09-09T16:00:01;2.10;;;1.00;;
63038;SDS011;49125;48.812;9.206;2022-09-09T16:02:31;3.42;;;1.42;;
63038;SDS011;49125;48.812;9.206;2022-09-09T16:04:57;5.15;;;1.15;;
63038;SDS011;49125;48.812;9.206;2022-09-09T16:07:23;2.58;;;1.02;;
63038;SDS011;49125;48.812;9.206;2022-09-09T16:09:49;2.15;;;1.30;;
63038;SDS011;49125;48.812;9.206;2022-09-09T16:12:16;3.03;;;1.52;;
63038;SDS011;49125;48.812;9.206;2022-09-09T16:14:42;5.10;;;1.42;;
63038;SDS011;49125;48.812;9.206;2022-09-09T16:17:07;3.15;;;1.08;;
63038;SDS011;49125;48.812;9.206;2022-09-09T16:19:33;3.15;;;1.10;;
63038;SDS011;49125;48.812;9.206;2022-09-09T16:21:59;4.43;;;1.30;;
63038;SDS011;49125;48.812;9.206;2022-09-09T16:24:25;1.38;;;1.20;;
63038;SDS011;49125;48.812;9.206;2022-09-09T16:26:52;2.90;;;1.05;;
63038;SDS011;49125;48.812;9.206;2022-09-09T16:29:19;1.95;;;1.08;;
63038;SDS011;49125;48.812;9.206;2022-09-09T16:31:47;2.22;;;1.20;;
63038;SDS011;49125;48.812;9.206;2022-09-09T16:34:13;2.20;;;0.93;;
63038;SDS011;49125;48.812;9.206;2022-09-09T16:36:40;4.22;;;0.90;;
63038;SDS011;49125;48.812;9.206;2022-09-09T16:39:09;3.78;;;0.70;;
63038;SDS011;49125;48.812;9.206;2022-09-09T16:41:37;3.95;;;0.70;;
63038;SDS011;49125;48.812;9.206;2022-09-09T16:44:05;1.33;;;0.68;;
63038;SDS011;49125;48.812;9.206;2022-09-09T16:46:36;2.40;;;0.70;;
63038;SDS011;49125;48.812;9.206;2022-09-09T16:49:07;1.25;;;0.68;;
63038;SDS011;49125;48.812;9.206;2022-09-09T16:51:44;5.00;;;0.65;;
63038;SDS011;49125;48.812;9.206;2022-09-09T16:54:12;1.58;;;1.00;;
63038;SDS011;49125;48.812;9.206;2022-09-09T16:56:39;2.63;;;0.85;;
63038;SDS011;49125;48.812;9.206;2022-09-09T17:01:58;1.05;;;0.40;;
63038;SDS011;49125;48.812;9.206;2022-09-09T17:04:26;0.90;;;0.60;;
63038;SDS011;49125;48.812;9.206;2022-09-09T17:06:53;0.60;;;0.60;;
63038;SDS011;49125;48.812;9.206;2022-09-09T17:09:19;0.70;;;0.57;;
63038;SDS011;49125;48.812;9.206;2022-09-09T17:11:47;0.60;;;0.50;;
63038;SDS011;49125;48.812;9.206;2022-09-09T17:14:16;0.70;;;0.40;;
63038;SDS011;49125;48.812;9.206;2022-09-09T17:16:43;1.27;;;0.52;;
63038;SDS011;49125;48.812;9.206;2022-09-09T17:19:10;0.88;;;0.50;;
63038;SDS011;49125;48.812;9.206;2022-09-09T17:21:36;1.45;;;0.60;;
63038;SDS011;49125;48.812;9.206;2022-09-09T17:24:02;1.65;;;0.63;;
63038;SDS011;49125;48.812;9.206;2022-09-09T17:26:29;1.40;;;0.68;;